sensor_id;sensor_type;location;lat;lon;timestamp;P1;P2;P0
77413;PMS7003;66486;49.992;19.164;2023-03-05T00:01:04;19.33;17.33;11.67
77413;PMS7003;66486;49.992;19.164;2023-03-05T00:03:35;12.00;10.25;6.75
77413;PMS7003;66486;49.992;19.164;2023-03-05T00:06:01;15.00;12.33;9.00
77413;PMS7003;66486;49.992;19.164;2023-03-05T00:08:28;11.00;9.50;7.75
77413;PMS7003;66486;49.992;19.164;2023-03-05T00:10:57;14.50;14.50;9.75
77413;PMS7003;66486;49.992;19.164;2023-03-05T00:13:26;11.50;11.00;8.50
77413;PMS7003;66486;49.992;19.164;2023-03-05T00:15:52;9.00;7.00;6.33
77413;PMS7003;66486;49.992;19.164;2023-03-05T00:18:18;10.25;10.25;7.00
77413;PMS7003;66486;49.992;19.164;2023-03-05T00:20:44;8.33;7.00;4.00
77413;PMS7003;66486;49.992;19.164;2023-03-05T00:23:11;10.50;7.50;5.50
77413;PMS7003;66486;49.992;19.164;2023-03-05T00:25:37;8.50;8.50;7.00
77413;PMS7003;66486;49.992;19.164;2023-03-05T00:28:04;9.50;9.50;7.00
77413;PMS7003;66486;49.992;19.164;2023-03-05T00:30:30;13.00;10.00;7.00
77413;PMS7003;66486;49.992;19.164;2023-03-05T00:32:57;11.00;10.00;6.75
77413;PMS7003;66486;49.992;19.164;2023-03-05T00:35:23;10.33;10.33;6.33
77413;PMS7003;66486;49.992;19.164;2023-03-05T00:37:49;9.75;9.00;6.00
77413;PMS7003;66486;49.992;19.164;2023-03-05T00:40:15;7.75;7.75;4.50
77413;PMS7003;66486;49.992;19.164;2023-03-05T00:42:42;10.00;9.00;6.00
77413;PMS7003;66486;49.992;19.164;2023-03-05T00:45:08;14.33;13.67;7.00
77413;PMS7003;66486;49.992;19.164;2023-03-05T00:47:35;11.25;10.50;7.50
77413;PMS7003;66486;49.992;19.164;2023-03-05T00:50:01;6.75;6.75;4.00
77413;PMS7003;66486;49.992;19.164;2023-03-05T00:52:29;12.50;10.50;7.00
77413;PMS7003;66486;49.992;19.164;2023-03-05T00:54:55;4.00;3.67;1.00
77413;PMS7003;66486;49.992;19.164;2023-03-05T00:57:21;6.50;6.50;4.25
77413;PMS7003;66486;49.992;19.164;2023-03-05T00:59:47;13.00;12.33;9.00
77413;PMS7003;66486;49.992;19.164;2023-03-05T01:02:13;12.75;12.00;6.75
77413;PMS7003;66486;49.992;19.164;2023-03-05T01:04:39;12.75;11.00;7.50
77413;PMS7003;66486;49.992;19.164;2023-03-05T01:07:06;11.00;10.50;6.00
77413;PMS7003;66486;49.992;19.164;2023-03-05T01:09:32;10.67;10.67;7.67
77413;PMS7003;66486;49.992;19.164;2023-03-05T01:11:58;13.00;12.50;9.00
77413;PMS7003;66486;49.992;19.164;2023-03-05T01:14:24;12.75;12.75;9.50
77413;PMS7003;66486;49.992;19.164;2023-03-05T01:16:53;9.50;8.75;7.75
77413;PMS7003;66486;49.992;19.164;2023-03-05T01:19:19;15.75;15.00;8.50
77413;PMS7003;66486;49.992;19.164;2023-03-05T01:21:45;11.50;11.50;9.00
77413;PMS7003;66486;49.992;19.164;2023-03-05T01:24:11;9.33;9.33;6.33
77413;PMS7003;66486;49.992;19.164;2023-03-05T01:26:37;14.00;14.00;9.25
77413;PMS7003;66486;49.992;19.164;2023-03-05T01:29:02;11.67;10.67;6.33
77413;PMS7003;66486;49.992;19.164;2023-03-05T01:31:29;6.75;5.00;1.50
77413;PMS7003;66486;49.992;19.164;2023-03-05T01:33:55;16.67;13.00;7.00
77413;PMS7003;66486;49.992;19.164;2023-03-05T01:36:21;17.50;11.50;7.00
77413;PMS7003;66486;49.992;19.164;2023-03-05T01:38:49;14.50;10.00;8.00
77413;PMS7003;66486;49.992;19.164;2023-03-05T01:41:16;17.50;15.00;9.75
77413;PMS7003;66486;49.992;19.164;2023-03-05T01:43:43;14.50;12.75;9.00
77413;PMS7003;66486;49.992;19.164;2023-03-05T01:49:26;14.50;12.75;7.75
77413;PMS7003;66486;49.992;19.164;2023-03-05T01:52:15;17.50;15.50;10.75
77413;PMS7003;66486;49.992;19.164;2023-03-05T01:54:44;13.50;13.50;9.25
77413;PMS7003;66486;49.992;19.164;2023-03-05T01:57:19;10.00;10.00;8.00
77413;PMS7003;66486;49.992;19.164;2023-03-05T01:59:51;17.75;17.50;11.00
77413;PMS7003;66486;49.992;19.164;2023-03-05T02:02:24;15.75;15.00;9.00
77413;PMS7003;66486;49.992;19.164;2023-03-05T02:04:52;18.25;17.75;13.00
77413;PMS7003;66486;49.992;19.164;2023-03-05T02:07:23;11.50;10.75;4.75
77413;PMS7003;66486;49.992;19.164;2023-03-05T02:09:49;12.00;12.00;6.50
77413;PMS7003;66486;49.992;19.164;2023-03-05T02:12:15;12.00;12.00;10.50
77413;PMS7003;66486;49.992;19.164;2023-03-05T02:14:42;17.50;12.50;9.25
77413;PMS7003;66486;49.992;19.164;2023-03-05T02:17:11;17.50;16.25;11.50
77413;PMS7003;66486;49.992;19.164;2023-03-05T02:19:48;12.75;12.75;9.00
77413;PMS7003;66486;49.992;19.164;2023-03-05T02:22:19;12.25;12.25;10.00
77413;PMS7003;66486;49.992;19.164;2023-03-05T02:24:47;11.25;9.00;6.25
77413;PMS7003;66486;49.992;19.164;2023-03-05T02:27:13;7.00;6.25;4.50
77413;PMS7003;66486;49.992;19.164;2023-03-05T02:29:41;15.25;13.00;9.25
77413;PMS7003;66486;49.992;19.164;2023-03-05T02:32:09;9.50;9.25;7.00
77413;PMS7003;66486;49.992;19.164;2023-03-05T02:34:36;9.50;9.50;6.00
77413;PMS7003;66486;49.992;19.164;2023-03-05T02:37:02;12.00;12.00;7.00
77413;PMS7003;66486;49.992;19.164;2023-03-05T02:39:32;11.25;11.25;7.00
77413;PMS7003;66486;49.992;19.164;2023-03-05T02:41:58;12.75;11.50;7.50
77413;PMS7003;66486;49.992;19.164;2023-03-05T02:44:24;14.67;14.67;9.67
77413;PMS7003;66486;49.992;19.164;2023-03-05T02:46:50;14.75;12.00;9.25
77413;PMS7003;66486;49.992;19.164;2023-03-05T02:49:16;6.00;6.00;3.67
77413;PMS7003;66486;49.992;19.164;2023-03-05T02:51:42;12.25;11.00;7.00
77413;PMS7003;66486;49.992;19.164;2023-03-05T02:54:07;10.67;10.67;8.33
77413;PMS7003;66486;49.992;19.164;2023-03-05T02:56:33;14.75;12.75;9.00
77413;PMS7003;66486;49.992;19.164;2023-03-05T02:58:59;10.00;9.33;7.00
77413;PMS7003;66486;49.992;19.164;2023-03-05T03:01:25;14.75;14.00;8.00
77413;PMS7003;66486;49.992;19.164;2023-03-05T03:03:55;16.00;15.50;9.00
77413;PMS7003;66486;49.992;19.164;2023-03-05T03:06:21;15.00;13.00;8.00
77413;PMS7003;66486;49.992;19.164;2023-03-05T03:08:47;10.00;7.67;4.00
77413;PMS7003;66486;49.992;19.164;2023-03-05T03:11:13;14.00;13.25;9.75
77413;PMS7003;66486;49.992;19.164;2023-03-05T03:13:39;17.33;16.00;13.00
77413;PMS7003;66486;49.992;19.164;2023-03-05T03:16:07;27.25;24.75;13.25
77413;PMS7003;66486;49.992;19.164;2023-03-05T03:18:36;17.50;17.50;13.75
77413;PMS7003;66486;49.992;19.164;2023-03-05T03:21:02;26.75;25.25;16.00
77413;PMS7003;66486;49.992;19.164;2023-03-05T03:23:29;24.75;24.00;14.00
77413;PMS7003;66486;49.992;19.164;2023-03-05T03:25:56;15.25;14.50;6.75
77413;PMS7003;66486;49.992;19.164;2023-03-05T03:28:21;19.00;19.00;12.33
77413;PMS7003;66486;49.992;19.164;2023-03-05T03:30:48;19.75;16.75;13.25
77413;PMS7003;66486;49.992;19.164;2023-03-05T03:33:13;15.33;15.33;9.00
77413;PMS7003;66486;49.992;19.164;2023-03-05T03:35:40;19.00;19.00;13.00
77413;PMS7003;66486;49.992;19.164;2023-03-05T03:38:06;21.00;16.67;10.00
77413;PMS7003;66486;49.992;19.164;2023-03-05T03:40:32;21.25;19.00;9.75
77413;PMS7003;66486;49.992;19.164;2023-03-05T03:43:00;17.25;16.00;12.25
77413;PMS7003;66486;49.992;19.164;2023-03-05T03:45:26;18.75;15.50;10.50
77413;PMS7003;66486;49.992;19.164;2023-03-05T03:47:51;13.33;13.33;11.33
77413;PMS7003;66486;49.992;19.164;2023-03-05T03:50:18;21.00;21.00;12.50
77413;PMS7003;66486;49.992;19.164;2023-03-05T03:52:46;18.50;17.00;12.00
77413;PMS7003;66486;49.992;19.164;2023-03-05T03:55:12;28.00;24.00;14.75
77413;PMS7003;66486;49.992;19.164;2023-03-05T03:57:38;26.00;23.67;13.67
77413;PMS7003;66486;49.992;19.164;2023-03-05T04:00:05;28.25;21.25;14.00
77413;PMS7003;66486;49.992;19.164;2023-03-05T04:02:32;27.50;26.25;15.50
77413;PMS7003;66486;49.992;19.164;2023-03-05T04:04:59;27.50;26.50;16.50
77413;PMS7003;66486;49.992;19.164;2023-03-05T04:07:24;30.00;27.33;16.33
77413;PMS7003;66486;49.992;19.164;2023-03-05T04:09:51;26.00;24.25;14.25
77413;PMS7003;66486;49.992;19.164;2023-03-05T04:12:17;29.33;26.33;15.33
77413;PMS7003;66486;49.992;19.164;2023-03-05T04:14:43;21.50;19.00;12.75
77413;PMS7003;66486;49.992;19.164;2023-03-05T04:17:10;22.25;18.50;13.25
77413;PMS7003;66486;49.992;19.164;2023-03-05T04:19:37;15.25;14.00;11.00
77413;PMS7003;66486;49.992;19.164;2023-03-05T04:22:03;29.25;23.00;14.00
77413;PMS7003;66486;49.992;19.164;2023-03-05T04:24:29;25.00;22.25;13.50
77413;PMS7003;66486;49.992;19.164;2023-03-05T04:26:55;11.33;11.33;5.33
77413;PMS7003;66486;49.992;19.164;2023-03-05T04:29:21;24.25;21.75;12.50
77413;PMS7003;66486;49.992;19.164;2023-03-05T04:31:47;18.00;16.00;12.33
77413;PMS7003;66486;49.992;19.164;2023-03-05T04:34:13;28.50;23.25;13.25
77413;PMS7003;66486;49.992;19.164;2023-03-05T04:36:39;25.33;24.33;13.00
77413;PMS7003;66486;49.992;19.164;2023-03-05T04:39:05;21.25;20.25;9.75
77413;PMS7003;66486;49.992;19.164;2023-03-05T04:41:31;26.33;24.00;12.67
77413;PMS7003;66486;49.992;19.164;2023-03-05T04:43:57;29.25;27.75;17.25
77413;PMS7003;66486;49.992;19.164;2023-03-05T04:46:23;24.00;21.00;13.00
77413;PMS7003;66486;49.992;19.164;2023-03-05T04:48:49;31.00;29.00;18.00
77413;PMS7003;66486;49.992;19.164;2023-03-05T04:51:15;24.33;23.67;14.33
77413;PMS7003;66486;49.992;19.164;2023-03-05T04:53:41;19.25;17.25;9.25
77413;PMS7003;66486;49.992;19.164;2023-03-05T04:56:07;32.67;30.00;19.00
77413;PMS7003;66486;49.992;19.164;2023-03-05T04:58:33;19.00;18.75;11.50
77413;PMS7003;66486;49.992;19.164;2023-03-05T05:00:59;21.00;19.00;9.67
77413;PMS7003;66486;49.992;19.164;2023-03-05T05:03:27;32.75;32.25;17.25
77413;PMS7003;66486;49.992;19.164;2023-03-05T05:05:53;33.67;29.33;18.00
77413;PMS7003;66486;49.992;19.164;2023-03-05T05:08:20;36.50;31.00;19.00
77413;PMS7003;66486;49.992;19.164;2023-03-05T05:10:56;34.50;33.00;19.00
77413;PMS7003;66486;49.992;19.164;2023-03-05T05:13:27;30.50;26.00;16.25
77413;PMS7003;66486;49.992;19.164;2023-03-05T05:15:53;35.00;34.50;24.00
77413;PMS7003;66486;49.992;19.164;2023-03-05T05:18:20;42.25;41.25;25.00
77413;PMS7003;66486;49.992;19.164;2023-03-05T05:20:46;37.50;32.50;18.75
77413;PMS7003;66486;49.992;19.164;2023-03-05T05:23:13;23.50;22.50;18.25
77413;PMS7003;66486;49.992;19.164;2023-03-05T05:25:39;31.25;31.25;18.50
77413;PMS7003;66486;49.992;19.164;2023-03-05T05:28:06;45.25;41.50;22.50
77413;PMS7003;66486;49.992;19.164;2023-03-05T05:30:31;42.00;36.33;22.67
77413;PMS7003;66486;49.992;19.164;2023-03-05T05:32:57;37.25;33.50;22.00
77413;PMS7003;66486;49.992;19.164;2023-03-05T05:35:23;31.00;28.67;20.33
77413;PMS7003;66486;49.992;19.164;2023-03-05T05:37:49;47.50;39.00;23.50
77413;PMS7003;66486;49.992;19.164;2023-03-05T05:40:15;33.00;30.50;18.50
77413;PMS7003;66486;49.992;19.164;2023-03-05T05:42:41;37.25;36.75;20.50
77413;PMS7003;66486;49.992;19.164;2023-03-05T05:45:08;34.75;33.50;20.25
77413;PMS7003;66486;49.992;19.164;2023-03-05T05:47:35;33.75;30.00;21.75
77413;PMS7003;66486;49.992;19.164;2023-03-05T05:50:01;31.67;31.00;18.33
77413;PMS7003;66486;49.992;19.164;2023-03-05T05:52:28;30.75;27.00;17.25
77413;PMS7003;66486;49.992;19.164;2023-03-05T05:54:54;34.67;33.67;21.00
77413;PMS7003;66486;49.992;19.164;2023-03-05T05:57:20;45.75;42.00;27.50
77413;PMS7003;66486;49.992;19.164;2023-03-05T05:59:46;42.00;37.33;22.67
77413;PMS7003;66486;49.992;19.164;2023-03-05T06:02:12;27.25;25.75;18.25
77413;PMS7003;66486;49.992;19.164;2023-03-05T06:04:38;44.33;38.67;23.33
77413;PMS7003;66486;49.992;19.164;2023-03-05T06:07:05;27.50;23.25;16.25
77413;PMS7003;66486;49.992;19.164;2023-03-05T06:09:31;25.00;23.75;10.25
77413;PMS7003;66486;49.992;19.164;2023-03-05T06:11:59;31.50;29.25;18.75
77413;PMS7003;66486;49.992;19.164;2023-03-05T06:14:25;21.00;21.00;13.00
77413;PMS7003;66486;49.992;19.164;2023-03-05T06:16:51;30.00;29.75;17.50
77413;PMS7003;66486;49.992;19.164;2023-03-05T06:19:17;33.33;29.33;16.67
77413;PMS7003;66486;49.992;19.164;2023-03-05T06:21:43;31.75;27.50;17.75
77413;PMS7003;66486;49.992;19.164;2023-03-05T06:24:09;31.33;31.33;19.67
77413;PMS7003;66486;49.992;19.164;2023-03-05T06:26:35;31.75;28.00;18.00
77413;PMS7003;66486;49.992;19.164;2023-03-05T06:29:01;67.00;57.33;34.67
77413;PMS7003;66486;49.992;19.164;2023-03-05T06:31:27;38.00;36.50;22.00
77413;PMS7003;66486;49.992;19.164;2023-03-05T06:33:54;32.75;31.25;22.25
77413;PMS7003;66486;49.992;19.164;2023-03-05T06:36:23;36.25;36.00;18.50
77413;PMS7003;66486;49.992;19.164;2023-03-05T06:38:50;49.75;46.75;28.50
77413;PMS7003;66486;49.992;19.164;2023-03-05T06:41:18;41.25;35.75;22.25
77413;PMS7003;66486;49.992;19.164;2023-03-05T06:43:46;35.50;35.50;20.00
77413;PMS7003;66486;49.992;19.164;2023-03-05T06:46:15;24.00;21.00;14.00
77413;PMS7003;66486;49.992;19.164;2023-03-05T06:48:43;21.00;21.00;15.75
77413;PMS7003;66486;49.992;19.164;2023-03-05T06:51:13;22.50;21.50;15.00
77413;PMS7003;66486;49.992;19.164;2023-03-05T06:53:40;19.75;19.75;13.00
77413;PMS7003;66486;49.992;19.164;2023-03-05T06:56:07;22.75;20.25;13.75
77413;PMS7003;66486;49.992;19.164;2023-03-05T06:58:33;57.50;47.25;25.25
77413;PMS7003;66486;49.992;19.164;2023-03-05T07:00:59;39.75;33.75;18.50
77413;PMS7003;66486;49.992;19.164;2023-03-05T07:03:25;34.67;32.33;22.00
77413;PMS7003;66486;49.992;19.164;2023-03-05T07:05:51;45.75;41.00;24.00
77413;PMS7003;66486;49.992;19.164;2023-03-05T07:08:17;66.67;54.67;32.67
77413;PMS7003;66486;49.992;19.164;2023-03-05T07:10:43;18.00;17.50;11.25
77413;PMS7003;66486;49.992;19.164;2023-03-05T07:13:09;20.67;19.33;12.33
77413;PMS7003;66486;49.992;19.164;2023-03-05T07:15:39;24.00;23.00;11.25
77413;PMS7003;66486;49.992;19.164;2023-03-05T07:18:05;32.25;24.50;11.50
77413;PMS7003;66486;49.992;19.164;2023-03-05T07:20:33;28.25;25.25;12.75
77413;PMS7003;66486;49.992;19.164;2023-03-05T07:23:00;18.50;18.50;10.50
77413;PMS7003;66486;49.992;19.164;2023-03-05T07:25:26;21.75;17.00;10.50
77413;PMS7003;66486;49.992;19.164;2023-03-05T07:27:52;24.67;23.33;14.33
77413;PMS7003;66486;49.992;19.164;2023-03-05T07:30:18;30.50;27.50;15.00
77413;PMS7003;66486;49.992;19.164;2023-03-05T07:32:43;25.00;21.67;13.00
77413;PMS7003;66486;49.992;19.164;2023-03-05T07:35:10;21.50;20.50;14.00
77413;PMS7003;66486;49.992;19.164;2023-03-05T07:37:35;27.67;25.00;18.00
77413;PMS7003;66486;49.992;19.164;2023-03-05T07:40:02;21.75;20.00;14.50
77413;PMS7003;66486;49.992;19.164;2023-03-05T07:42:29;22.50;16.00;9.25
77413;PMS7003;66486;49.992;19.164;2023-03-05T07:44:55;24.75;23.50;14.00
77413;PMS7003;66486;49.992;19.164;2023-03-05T07:47:21;24.00;22.00;15.67
77413;PMS7003;66486;49.992;19.164;2023-03-05T07:49:50;21.50;20.00;13.00
77413;PMS7003;66486;49.992;19.164;2023-03-05T07:52:16;19.50;17.50;12.25
77413;PMS7003;66486;49.992;19.164;2023-03-05T07:54:42;29.00;26.50;18.00
77413;PMS7003;66486;49.992;19.164;2023-03-05T07:57:09;27.67;25.33;16.00
77413;PMS7003;66486;49.992;19.164;2023-03-05T07:59:37;24.25;22.50;13.00
77413;PMS7003;66486;49.992;19.164;2023-03-05T08:02:04;17.25;16.25;12.00
77413;PMS7003;66486;49.992;19.164;2023-03-05T08:04:30;28.75;27.50;19.75
77413;PMS7003;66486;49.992;19.164;2023-03-05T08:06:56;50.67;44.33;30.00
77413;PMS7003;66486;49.992;19.164;2023-03-05T08:09:24;35.75;33.50;21.00
77413;PMS7003;66486;49.992;19.164;2023-03-05T08:11:50;26.67;26.33;19.67
77413;PMS7003;66486;49.992;19.164;2023-03-05T08:14:16;37.00;34.75;22.00
77413;PMS7003;66486;49.992;19.164;2023-03-05T08:16:42;35.33;33.67;24.33
77413;PMS7003;66486;49.992;19.164;2023-03-05T08:19:08;30.50;29.00;18.25
77413;PMS7003;66486;49.992;19.164;2023-03-05T08:21:35;29.50;27.00;22.00
77413;PMS7003;66486;49.992;19.164;2023-03-05T08:24:03;24.25;23.50;16.00
77413;PMS7003;66486;49.992;19.164;2023-03-05T08:26:31;21.75;21.75;13.00
77413;PMS7003;66486;49.992;19.164;2023-03-05T08:29:00;26.75;24.50;16.75
77413;PMS7003;66486;49.992;19.164;2023-03-05T08:31:27;37.25;32.50;18.00
77413;PMS7003;66486;49.992;19.164;2023-03-05T08:33:55;35.00;34.50;20.50
77413;PMS7003;66486;49.992;19.164;2023-03-05T08:36:22;35.00;33.00;19.50
77413;PMS7003;66486;49.992;19.164;2023-03-05T08:38:48;36.25;34.50;23.00
77413;PMS7003;66486;49.992;19.164;2023-03-05T08:41:15;48.00;45.00;26.00
77413;PMS7003;66486;49.992;19.164;2023-03-05T08:43:42;33.50;30.50;22.25
77413;PMS7003;66486;49.992;19.164;2023-03-05T08:46:09;31.50;31.50;20.50
77413;PMS7003;66486;49.992;19.164;2023-03-05T08:48:37;45.25;44.50;30.75
77413;PMS7003;66486;49.992;19.164;2023-03-05T08:51:04;33.75;32.25;21.50
77413;PMS7003;66486;49.992;19.164;2023-03-05T08:53:34;32.00;30.25;16.00
77413;PMS7003;66486;49.992;19.164;2023-03-05T08:56:00;23.25;22.75;19.50
77413;PMS7003;66486;49.992;19.164;2023-03-05T08:58:27;37.50;33.00;19.50
77413;PMS7003;66486;49.992;19.164;2023-03-05T09:00:53;37.75;30.25;19.25
77413;PMS7003;66486;49.992;19.164;2023-03-05T09:03:19;38.25;34.75;22.50
77413;PMS7003;66486;49.992;19.164;2023-03-05T09:05:45;33.25;26.75;18.75
77413;PMS7003;66486;49.992;19.164;2023-03-05T09:08:11;35.20;28.20;16.80
77413;PMS7003;66486;49.992;19.164;2023-03-05T09:10:37;41.33;36.67;19.67
77413;PMS7003;66486;49.992;19.164;2023-03-05T09:13:06;35.75;31.50;17.00
77413;PMS7003;66486;49.992;19.164;2023-03-05T09:15:33;30.50;28.75;19.00
77413;PMS7003;66486;49.992;19.164;2023-03-05T09:17:59;30.25;30.25;17.75
77413;PMS7003;66486;49.992;19.164;2023-03-05T09:20:25;26.00;21.33;13.00
77413;PMS7003;66486;49.992;19.164;2023-03-05T09:22:51;37.75;34.25;18.50
77413;PMS7003;66486;49.992;19.164;2023-03-05T09:25:17;26.00;23.50;14.50
77413;PMS7003;66486;49.992;19.164;2023-03-05T09:27:43;39.50;36.75;21.00
77413;PMS7003;66486;49.992;19.164;2023-03-05T09:30:10;39.25;36.25;18.75
77413;PMS7003;66486;49.992;19.164;2023-03-05T09:32:37;44.25;39.25;18.75
77413;PMS7003;66486;49.992;19.164;2023-03-05T09:35:03;30.75;28.50;18.00
77413;PMS7003;66486;49.992;19.164;2023-03-05T09:37:30;27.50;26.50;14.00
77413;PMS7003;66486;49.992;19.164;2023-03-05T09:39:57;25.00;23.60;15.40
77413;PMS7003;66486;49.992;19.164;2023-03-05T09:42:28;21.25;20.00;16.25
77413;PMS7003;66486;49.992;19.164;2023-03-05T09:45:11;22.80;21.40;10.40
77413;PMS7003;66486;49.992;19.164;2023-03-05T09:47:51;23.00;21.25;12.50
77413;PMS7003;66486;49.992;19.164;2023-03-05T09:50:43;21.75;19.50;12.75
77413;PMS7003;66486;49.992;19.164;2023-03-05T09:53:37;27.25;27.00;16.00
77413;PMS7003;66486;49.992;19.164;2023-03-05T09:56:13;21.75;19.75;12.00
77413;PMS7003;66486;49.992;19.164;2023-03-05T09:58:47;16.80;16.80;11.80
77413;PMS7003;66486;49.992;19.164;2023-03-05T10:01:25;14.00;13.75;8.00
77413;PMS7003;66486;49.992;19.164;2023-03-05T10:03:58;19.00;13.75;9.25
77413;PMS7003;66486;49.992;19.164;2023-03-05T10:06:35;7.25;7.25;2.50
77413;PMS7003;66486;49.992;19.164;2023-03-05T10:09:21;24.00;22.25;12.50
77413;PMS7003;66486;49.992;19.164;2023-03-05T10:14:29;19.50;15.75;9.00
77413;PMS7003;66486;49.992;19.164;2023-03-05T10:22:30;22.25;20.75;13.25
77413;PMS7003;66486;49.992;19.164;2023-03-05T10:35:33;14.00;12.50;7.50
77413;PMS7003;66486;49.992;19.164;2023-03-05T10:43:14;20.75;18.00;8.75
77413;PMS7003;66486;49.992;19.164;2023-03-05T10:45:52;15.75;13.50;8.50
77413;PMS7003;66486;49.992;19.164;2023-03-05T10:48:40;24.50;18.50;11.50
77413;PMS7003;66486;49.992;19.164;2023-03-05T10:51:23;19.00;17.00;9.75
77413;PMS7003;66486;49.992;19.164;2023-03-05T10:56:43;13.50;13.25;9.25
77413;PMS7003;66486;49.992;19.164;2023-03-05T10:59:09;19.00;18.33;11.33
77413;PMS7003;66486;49.992;19.164;2023-03-05T11:01:35;16.50;15.25;9.50
77413;PMS7003;66486;49.992;19.164;2023-03-05T11:04:06;10.25;9.75;4.00
77413;PMS7003;66486;49.992;19.164;2023-03-05T11:06:52;14.75;13.50;10.00
77413;PMS7003;66486;49.992;19.164;2023-03-05T11:14:46;17.50;14.50;9.75
77413;PMS7003;66486;49.992;19.164;2023-03-05T11:18:02;8.00;6.75;5.00
77413;PMS7003;66486;49.992;19.164;2023-03-05T11:20:32;6.75;6.00;3.75
77413;PMS7003;66486;49.992;19.164;2023-03-05T11:23:16;11.50;11.50;6.25
77413;PMS7003;66486;49.992;19.164;2023-03-05T11:25:53;13.50;11.00;6.00
77413;PMS7003;66486;49.992;19.164;2023-03-05T11:28:38;8.75;7.50;5.75
77413;PMS7003;66486;49.992;19.164;2023-03-05T11:31:21;6.00;6.00;4.00
77413;PMS7003;66486;49.992;19.164;2023-03-05T11:39:08;7.25;7.25;4.00
77413;PMS7003;66486;49.992;19.164;2023-03-05T11:44:23;8.75;5.50;3.75
77413;PMS7003;66486;49.992;19.164;2023-03-05T11:46:54;6.00;6.00;3.25
77413;PMS7003;66486;49.992;19.164;2023-03-05T11:49:27;6.00;6.00;4.00
77413;PMS7003;66486;49.992;19.164;2023-03-05T11:55:26;6.00;5.33;3.00
77413;PMS7003;66486;49.992;19.164;2023-03-05T11:57:44;5.75;4.50;3.50
77413;PMS7003;66486;49.992;19.164;2023-03-05T12:00:15;4.50;4.50;3.75
77413;PMS7003;66486;49.992;19.164;2023-03-05T12:02:44;3.00;3.00;1.00
77413;PMS7003;66486;49.992;19.164;2023-03-05T12:05:14;6.50;6.50;4.00
77413;PMS7003;66486;49.992;19.164;2023-03-05T12:07:42;11.50;9.25;7.00
77413;PMS7003;66486;49.992;19.164;2023-03-05T12:10:17;6.75;6.75;3.50
77413;PMS7003;66486;49.992;19.164;2023-03-05T12:23:45;11.50;9.75;7.00
77413;PMS7003;66486;49.992;19.164;2023-03-05T12:26:14;6.25;4.00;3.00
77413;PMS7003;66486;49.992;19.164;2023-03-05T12:28:51;9.00;9.00;6.00
77413;PMS7003;66486;49.992;19.164;2023-03-05T12:31:27;10.00;9.00;3.75
77413;PMS7003;66486;49.992;19.164;2023-03-05T12:37:10;10.75;9.75;7.00
77413;PMS7003;66486;49.992;19.164;2023-03-05T12:47:44;19.00;16.50;9.25
77413;PMS7003;66486;49.992;19.164;2023-03-05T12:52:55;9.50;9.50;4.00
77413;PMS7003;66486;49.992;19.164;2023-03-05T12:55:29;17.50;16.00;10.00
77413;PMS7003;66486;49.992;19.164;2023-03-05T12:58:12;19.75;17.75;9.50
77413;PMS7003;66486;49.992;19.164;2023-03-05T13:00:46;16.50;15.50;9.25
77413;PMS7003;66486;49.992;19.164;2023-03-05T13:03:18;14.50;12.75;10.25
77413;PMS7003;66486;49.992;19.164;2023-03-05T13:05:50;19.00;17.00;11.50
77413;PMS7003;66486;49.992;19.164;2023-03-05T13:11:03;22.50;22.00;12.00
77413;PMS7003;66486;49.992;19.164;2023-03-05T13:13:36;12.00;12.00;7.00
77413;PMS7003;66486;49.992;19.164;2023-03-05T13:16:25;22.50;19.75;12.00
77413;PMS7003;66486;49.992;19.164;2023-03-05T13:18:58;21.00;20.00;15.00
77413;PMS7003;66486;49.992;19.164;2023-03-05T13:21:27;15.00;14.40;9.80
77413;PMS7003;66486;49.992;19.164;2023-03-05T13:23:56;12.00;10.50;7.00
77413;PMS7003;66486;49.992;19.164;2023-03-05T13:26:25;14.00;12.50;6.00
77413;PMS7003;66486;49.992;19.164;2023-03-05T13:31:30;6.00;6.00;4.00
77413;PMS7003;66486;49.992;19.164;2023-03-05T13:34:04;0.00;0.00;0.00
77413;PMS7003;66486;49.992;19.164;2023-03-05T13:36:39;1.80;1.80;1.00
77413;PMS7003;66486;49.992;19.164;2023-03-05T13:39:21;1.00;1.00;1.00
77413;PMS7003;66486;49.992;19.164;2023-03-05T13:41:59;0.00;0.00;0.00
77413;PMS7003;66486;49.992;19.164;2023-03-05T13:44:26;3.00;2.60;1.00
77413;PMS7003;66486;49.992;19.164;2023-03-05T13:47:04;1.40;1.40;0.80
77413;PMS7003;66486;49.992;19.164;2023-03-05T13:49:42;1.00;1.00;1.00
77413;PMS7003;66486;49.992;19.164;2023-03-05T13:52:10;9.00;9.00;4.00
77413;PMS7003;66486;49.992;19.164;2023-03-05T13:54:42;3.00;3.00;2.20
77413;PMS7003;66486;49.992;19.164;2023-03-05T13:57:25;6.20;4.00;4.00
77413;PMS7003;66486;49.992;19.164;2023-03-05T14:00:06;5.60;5.60;3.40
77413;PMS7003;66486;49.992;19.164;2023-03-05T14:02:49;1.40;1.40;0.40
77413;PMS7003;66486;49.992;19.164;2023-03-05T14:05:16;4.80;4.40;3.00
77413;PMS7003;66486;49.992;19.164;2023-03-05T14:07:44;3.00;1.00;0.60
77413;PMS7003;66486;49.992;19.164;2023-03-05T14:10:47;7.00;5.20;3.60
77413;PMS7003;66486;49.992;19.164;2023-03-05T14:13:11;8.80;8.20;6.60
77413;PMS7003;66486;49.992;19.164;2023-03-05T14:15:42;5.60;5.20;5.20
77413;PMS7003;66486;49.992;19.164;2023-03-05T14:20:38;9.40;8.60;6.00
77413;PMS7003;66486;49.992;19.164;2023-03-05T14:23:29;9.40;9.00;5.20
77413;PMS7003;66486;49.992;19.164;2023-03-05T14:29:25;2.20;2.20;1.40
77413;PMS7003;66486;49.992;19.164;2023-03-05T14:32:04;6.50;6.50;4.00
77413;PMS7003;66486;49.992;19.164;2023-03-05T14:34:39;8.20;8.20;6.00
77413;PMS7003;66486;49.992;19.164;2023-03-05T14:37:18;6.20;6.20;4.00
77413;PMS7003;66486;49.992;19.164;2023-03-05T14:39:50;6.80;6.00;4.00
77413;PMS7003;66486;49.992;19.164;2023-03-05T14:42:25;1.00;1.00;1.00
77413;PMS7003;66486;49.992;19.164;2023-03-05T14:44:55;8.20;7.00;6.00
77413;PMS7003;66486;49.992;19.164;2023-03-05T14:47:24;8.40;6.80;4.80
77413;PMS7003;66486;49.992;19.164;2023-03-05T14:49:57;7.00;7.00;4.80
77413;PMS7003;66486;49.992;19.164;2023-03-05T14:52:24;6.80;6.80;4.40
77413;PMS7003;66486;49.992;19.164;2023-03-05T14:54:51;8.60;5.60;3.60
77413;PMS7003;66486;49.992;19.164;2023-03-05T14:57:23;10.80;7.40;4.00
77413;PMS7003;66486;49.992;19.164;2023-03-05T14:59:52;6.75;6.75;4.50
77413;PMS7003;66486;49.992;19.164;2023-03-05T15:02:21;7.40;6.40;3.80
77413;PMS7003;66486;49.992;19.164;2023-03-05T15:04:50;9.25;9.25;6.50
77413;PMS7003;66486;49.992;19.164;2023-03-05T15:09:54;1.00;1.00;0.00
77413;PMS7003;66486;49.992;19.164;2023-03-05T15:12:21;10.20;10.20;6.20
77413;PMS7003;66486;49.992;19.164;2023-03-05T15:14:50;4.60;4.60;3.40
77413;PMS7003;66486;49.992;19.164;2023-03-05T15:17:19;6.00;5.60;4.00
77413;PMS7003;66486;49.992;19.164;2023-03-05T15:19:48;8.00;6.80;5.60